createdAt,value
2018-07-14T00:02:17.040Z,6.63
2018-07-14T00:04:48.150Z,7.57
2018-07-14T00:07:19.213Z,6.70
2018-07-14T00:09:51.218Z,6.40
2018-07-14T00:12:22.542Z,6.60
2018-07-14T00:14:53.936Z,6.30
2018-07-14T00:17:24.364Z,6.23
2018-07-14T00:19:55.250Z,8.07
2018-07-14T00:22:26.366Z,7.13
2018-07-14T00:24:57.563Z,5.97
2018-07-14T00:27:28.690Z,5.90
2018-07-14T00:29:59.918Z,6.80
2018-07-14T00:32:31.095Z,6.20
2018-07-14T00:35:02.317Z,8.23
2018-07-14T00:37:33.622Z,6.70
2018-07-14T00:40:04.948Z,7.40
2018-07-14T00:42:36.279Z,6.47
2018-07-14T00:45:07.614Z,6.87
2018-07-14T00:47:38.706Z,6.73
2018-07-14T00:50:09.823Z,7.50
2018-07-14T00:52:41.115Z,7.40
2018-07-14T00:55:12.207Z,6.77
2018-07-14T00:57:43.300Z,7.07
2018-07-14T01:00:14.141Z,6.73
2018-07-14T01:02:45.310Z,6.50
2018-07-14T01:05:16.485Z,6.33
2018-07-14T01:07:47.639Z,9.47
2018-07-14T01:10:18.701Z,7.90
2018-07-14T01:12:50.025Z,7.67
2018-07-14T01:15:21.329Z,8.70
2018-07-14T01:17:53.094Z,6.70
2018-07-14T01:20:24.242Z,8.43
2018-07-14T01:22:55.604Z,7.40
2018-07-14T01:25:26.747Z,8.30
2018-07-14T01:27:57.935Z,7.63
2018-07-14T01:30:29.193Z,6.83
2018-07-14T01:33:00.562Z,8.00
2018-07-14T01:35:31.765Z,8.27
2018-07-14T01:38:02.952Z,7.80
2018-07-14T01:40:34.271Z,7.70
2018-07-14T01:43:05.338Z,7.90
2018-07-14T01:45:36.858Z,7.43
2018-07-14T01:48:08.031Z,9.90
2018-07-14T01:50:39.307Z,8.83
2018-07-14T01:53:10.504Z,8.27
2018-07-14T01:55:41.731Z,7.00
2018-07-14T01:58:12.942Z,7.60
2018-07-14T02:00:44.074Z,7.60
2018-07-14T02:03:15.613Z,7.03
2018-07-14T02:05:46.784Z,7.60
2018-07-14T02:08:18.163Z,7.80
2018-07-14T02:10:49.356Z,7.80
2018-07-14T02:13:20.556Z,7.97
2018-07-14T02:15:51.916Z,8.17
2018-07-14T02:18:23.648Z,6.90
2018-07-14T02:20:54.850Z,6.90
2018-07-14T02:23:26.140Z,12.10
2018-07-14T02:25:57.461Z,8.00
2018-07-14T02:28:28.672Z,9.13
2018-07-14T02:31:00.066Z,7.47
2018-07-14T02:33:31.280Z,7.40
2018-07-14T02:36:02.381Z,8.33
2018-07-14T02:38:33.681Z,8.07
2018-07-14T02:41:04.849Z,7.70
2018-07-14T02:43:35.819Z,7.70
2018-07-14T02:46:07.207Z,7.20
2018-07-14T02:48:38.457Z,8.03
2018-07-14T02:51:09.466Z,7.83
2018-07-14T02:53:40.619Z,9.33
2018-07-14T02:56:12.495Z,7.80
2018-07-14T02:58:43.852Z,7.83
2018-07-14T03:01:14.963Z,8.87
2018-07-14T03:03:46.019Z,7.77
2018-07-14T03:06:17.306Z,8.40
2018-07-14T03:08:48.471Z,8.03
2018-07-14T03:11:19.558Z,7.87
2018-07-14T03:13:50.688Z,7.77
2018-07-14T03:16:21.929Z,7.97
2018-07-14T03:18:53.244Z,7.73
2018-07-14T03:21:24.366Z,8.70
2018-07-14T03:23:55.336Z,12.40
2018-07-14T03:26:26.496Z,8.27
2018-07-14T03:28:57.744Z,7.90
2018-07-14T03:31:28.798Z,8.00
2018-07-14T03:33:59.793Z,8.90
2018-07-14T03:36:31.123Z,7.67
2018-07-14T03:39:02.256Z,7.67
2018-07-14T03:41:33.383Z,7.43
2018-07-14T03:44:04.674Z,7.87
2018-07-14T03:46:35.798Z,7.17
2018-07-14T03:49:07.064Z,7.93
2018-07-14T03:51:38.984Z,7.13
2018-07-14T03:54:10.270Z,7.37
2018-07-14T03:56:41.565Z,7.63
2018-07-14T03:59:13.417Z,7.83
2018-07-14T04:01:44.691Z,7.87
2018-07-14T04:04:15.970Z,7.27
2018-07-14T04:06:47.378Z,7.40
2018-07-14T04:09:18.668Z,7.67
2018-07-14T04:11:50.022Z,7.30
2018-07-14T04:14:21.485Z,7.43
2018-07-14T04:16:52.633Z,7.67
2018-07-14T04:19:23.988Z,7.87
2018-07-14T04:21:55.152Z,8.30
2018-07-14T04:24:26.480Z,7.40
2018-07-14T04:26:57.638Z,7.70
2018-07-14T04:29:28.962Z,7.63
2018-07-14T04:32:00.330Z,8.07
2018-07-14T04:34:31.653Z,7.53
2018-07-14T04:37:02.649Z,8.20
2018-07-14T04:39:33.832Z,10.50
2018-07-14T04:42:04.975Z,7.60
2018-07-14T04:44:36.195Z,7.47
2018-07-14T04:47:07.626Z,7.33
2018-07-14T04:49:38.643Z,8.40
2018-07-14T04:52:09.825Z,9.90
2018-07-14T04:54:40.965Z,8.10
2018-07-14T04:57:12.075Z,8.00
2018-07-14T04:59:43.160Z,7.53
2018-07-14T05:02:14.295Z,8.23
2018-07-14T05:04:45.590Z,8.20
2018-07-14T05:07:16.710Z,8.33
2018-07-14T05:09:48.129Z,7.23
2018-07-14T05:12:19.428Z,7.63
2018-07-14T05:14:50.783Z,8.43
2018-07-14T05:17:22.532Z,8.93
2018-07-14T05:19:53.010Z,7.40
2018-07-14T05:22:23.927Z,7.70
2018-07-14T05:24:55.245Z,7.20
2018-07-14T05:27:26.467Z,7.80
2018-07-14T05:29:57.789Z,7.47
2018-07-14T05:32:29.237Z,7.60
2018-07-14T05:35:00.317Z,7.20
2018-07-14T05:37:31.619Z,7.20
2018-07-14T05:40:02.579Z,7.37
2018-07-14T05:42:33.832Z,7.43
2018-07-14T05:45:04.933Z,6.93
2018-07-14T05:47:36.092Z,7.17
2018-07-14T05:50:07.839Z,7.37
2018-07-14T05:52:39.064Z,7.57
2018-07-14T05:55:10.127Z,7.83
2018-07-14T05:57:41.458Z,7.73
2018-07-14T06:00:12.834Z,8.03
2018-07-14T06:02:43.952Z,8.13
2018-07-14T06:05:15.168Z,7.53
2018-07-14T06:07:46.400Z,7.60
2018-07-14T06:10:17.607Z,7.20
2018-07-14T06:12:48.931Z,7.30
2018-07-14T06:15:20.402Z,7.13
2018-07-14T06:17:51.759Z,7.27
2018-07-14T06:20:23.074Z,7.80
2018-07-14T06:22:54.160Z,7.87
2018-07-14T06:25:25.449Z,8.60
2018-07-14T06:27:56.871Z,10.33
2018-07-14T06:30:28.228Z,8.83
2018-07-14T06:32:59.289Z,7.90
2018-07-14T06:35:30.321Z,7.93
2018-07-14T06:38:01.512Z,7.27
2018-07-14T06:40:32.582Z,9.20
2018-07-14T06:43:03.852Z,8.67
2018-07-14T06:45:35.137Z,9.73
2018-07-14T06:48:06.682Z,9.00
2018-07-14T06:50:37.869Z,8.20
2018-07-14T06:53:08.949Z,8.17
2018-07-14T06:55:40.424Z,10.40
2018-07-14T06:58:11.575Z,9.17
2018-07-14T07:00:42.876Z,9.30
2018-07-14T07:03:14.105Z,7.87
2018-07-14T07:05:45.362Z,7.53
2018-07-14T07:08:17.705Z,7.90
2018-07-14T07:10:49.302Z,8.43
2018-07-14T07:13:20.727Z,7.63
2018-07-14T07:15:52.130Z,9.03
2018-07-14T07:18:23.554Z,9.37
2018-07-14T07:20:54.804Z,7.80
2018-07-14T07:23:26.226Z,7.47
2018-07-14T07:25:57.504Z,8.57
2018-07-14T07:28:28.748Z,10.33
2018-07-14T07:30:59.862Z,8.20
2018-07-14T07:33:31.134Z,10.63
2018-07-14T07:36:02.290Z,8.60
2018-07-14T07:38:33.357Z,11.07
2018-07-14T07:41:04.647Z,10.03
2018-07-14T07:43:35.806Z,7.90
2018-07-14T07:46:07.042Z,10.23
2018-07-14T07:48:38.173Z,10.03
2018-07-14T07:51:09.421Z,8.90
2018-07-14T07:53:41.336Z,9.83
2018-07-14T07:56:12.647Z,10.10
2018-07-14T07:58:43.792Z,10.90
2018-07-14T08:01:15.480Z,11.50
2018-07-14T08:03:46.620Z,9.20
2018-07-14T08:06:17.787Z,8.47
2018-07-14T08:08:49.491Z,9.73
2018-07-14T08:11:20.952Z,9.00
2018-07-14T08:13:51.597Z,10.70
2018-07-14T08:16:22.170Z,8.97
2018-07-14T08:18:53.158Z,8.27
2018-07-14T08:21:25.097Z,8.33
2018-07-14T08:23:56.212Z,7.90
2018-07-14T08:26:27.599Z,9.97
2018-07-14T08:28:58.966Z,10.35
2018-07-14T08:31:30.426Z,8.68
2018-07-14T08:34:01.608Z,7.60
2018-07-14T08:36:32.521Z,8.73
2018-07-14T08:39:04.099Z,8.90
2018-07-14T08:41:35.058Z,7.12
2018-07-14T08:44:06.187Z,8.98
2018-07-14T08:46:37.616Z,8.85
2018-07-14T08:49:08.755Z,8.00
2018-07-14T08:51:39.911Z,8.18
2018-07-14T08:54:10.958Z,10.55
2018-07-14T08:56:42.208Z,10.38
2018-07-14T08:59:13.614Z,7.60
2018-07-14T09:01:44.926Z,8.98
2018-07-14T09:04:16.138Z,11.20
2018-07-14T09:06:47.291Z,7.78
2018-07-14T09:09:18.985Z,8.05
2018-07-14T09:11:50.706Z,7.80
2018-07-14T09:14:22.085Z,8.78
2018-07-14T09:16:53.370Z,9.33
2018-07-14T09:19:24.451Z,8.78
2018-07-14T09:21:55.615Z,7.87
2018-07-14T09:24:27.026Z,7.70
2018-07-14T09:26:58.493Z,8.30
2018-07-14T09:29:29.968Z,7.80
2018-07-14T09:32:01.343Z,7.63
2018-07-14T09:34:32.875Z,7.30
2018-07-14T09:37:04.095Z,9.33
2018-07-14T09:39:35.722Z,8.50
2018-07-14T09:42:06.946Z,8.50
2018-07-14T09:44:38.180Z,8.97
2018-07-14T09:47:09.162Z,6.20
2018-07-14T09:49:40.386Z,7.07
2018-07-14T09:52:11.720Z,7.83
2018-07-14T09:54:42.878Z,6.23
2018-07-14T09:57:14.633Z,7.93
2018-07-14T09:59:45.842Z,6.13
2018-07-14T10:02:17.351Z,5.93
2018-07-14T10:04:48.774Z,6.00
2018-07-14T10:07:20.380Z,6.17
2018-07-14T10:09:51.675Z,5.10
2018-07-14T10:12:22.712Z,5.92
2018-07-14T10:14:54.097Z,6.10
2018-07-14T10:17:25.400Z,6.05
2018-07-14T10:19:56.435Z,5.22
2018-07-14T10:22:27.680Z,5.90
2018-07-14T10:24:58.937Z,6.40
2018-07-14T10:27:29.931Z,6.20
2018-07-14T10:30:01.088Z,5.80
2018-07-14T10:32:32.089Z,5.62
2018-07-14T10:35:03.190Z,5.40
2018-07-14T10:37:34.633Z,6.05
2018-07-14T10:40:05.870Z,4.95
2018-07-14T10:42:37.699Z,6.53
2018-07-14T10:45:09.145Z,7.35
2018-07-14T10:47:40.385Z,5.75
2018-07-14T10:50:12.058Z,5.87
2018-07-14T10:52:43.073Z,5.65
2018-07-14T10:55:14.170Z,7.22
2018-07-14T10:57:45.385Z,8.05
2018-07-14T11:00:16.913Z,7.25
2018-07-14T11:02:48.585Z,6.22
2018-07-14T11:05:19.918Z,6.08
2018-07-14T11:07:51.500Z,6.00
2018-07-14T11:10:22.665Z,5.28
2018-07-14T11:12:53.886Z,5.67
2018-07-14T11:15:25.188Z,6.67
2018-07-14T11:17:56.587Z,5.47
2018-07-14T11:20:28.011Z,5.05
2018-07-14T11:23:00.188Z,4.87
2018-07-14T11:25:31.825Z,5.75
2018-07-14T11:28:02.879Z,6.78
2018-07-14T11:30:34.784Z,4.90
2018-07-14T11:33:06.126Z,4.22
2018-07-14T11:35:37.164Z,5.37
2018-07-14T11:38:08.469Z,4.53
2018-07-14T11:40:39.625Z,4.62
2018-07-14T11:43:10.917Z,4.20
2018-07-14T11:45:42.562Z,5.22
2018-07-14T11:48:14.491Z,5.37
2018-07-14T11:50:45.751Z,5.92
2018-07-14T11:53:18.292Z,6.05
2018-07-14T11:55:49.416Z,4.78
2018-07-14T11:58:20.984Z,5.03
2018-07-14T12:00:52.172Z,4.62
2018-07-14T12:03:23.879Z,5.12
2018-07-14T12:05:54.929Z,4.30
2018-07-14T12:08:26.084Z,5.20
2018-07-14T12:10:57.186Z,6.83
2018-07-14T12:13:28.154Z,4.72
2018-07-14T12:15:59.403Z,4.78
2018-07-14T12:18:30.540Z,5.83
2018-07-14T12:21:01.784Z,4.80
2018-07-14T12:23:32.845Z,4.37
2018-07-14T12:26:04.133Z,4.55
2018-07-14T12:28:35.437Z,4.45
2018-07-14T12:31:06.562Z,4.87
2018-07-14T12:33:38.362Z,5.25
2018-07-14T12:36:09.384Z,4.25
2018-07-14T12:38:41.024Z,4.55
2018-07-14T12:41:12.184Z,4.42
2018-07-14T12:43:43.556Z,4.60
2018-07-14T12:46:15.435Z,5.45
2018-07-14T12:48:46.583Z,4.12
2018-07-14T12:51:18.087Z,4.30
2018-07-14T12:53:49.480Z,4.17
2018-07-14T12:56:20.734Z,3.98
2018-07-14T12:58:52.399Z,3.87
2018-07-14T13:01:23.616Z,6.33
2018-07-14T13:03:54.940Z,4.53
2018-07-14T13:06:26.193Z,3.98
2018-07-14T13:08:57.633Z,3.85
2018-07-14T13:11:28.935Z,4.20
2018-07-14T13:14:00.287Z,4.83
2018-07-14T13:16:31.423Z,4.30
2018-07-14T13:19:03.197Z,3.58
2018-07-14T13:21:34.430Z,3.90
2018-07-14T13:24:05.498Z,3.70
2018-07-14T13:26:36.601Z,4.20
2018-07-14T13:29:08.063Z,5.53
2018-07-14T13:31:39.192Z,4.10
2018-07-14T13:34:10.334Z,4.28
2018-07-14T13:36:41.585Z,6.03
2018-07-14T13:39:12.611Z,3.75
2018-07-14T13:41:43.818Z,3.87
2018-07-14T13:44:15.192Z,4.92
2018-07-14T13:46:46.660Z,3.52
2018-07-14T13:49:17.900Z,4.90
2018-07-14T13:51:49.807Z,4.70
2018-07-14T13:54:21.052Z,4.28
2018-07-14T13:56:53.715Z,4.05
2018-07-14T13:59:24.886Z,5.70
2018-07-14T14:01:56.564Z,3.70
2018-07-14T14:04:27.846Z,3.83
2018-07-14T14:06:59.589Z,3.80
2018-07-14T14:09:30.846Z,4.22
2018-07-14T14:12:01.976Z,4.08
2018-07-14T14:14:32.518Z,5.62
2018-07-14T14:17:03.347Z,3.90
2018-07-14T14:19:34.609Z,3.95
2018-07-14T14:22:06.033Z,3.92
2018-07-14T14:24:37.233Z,4.55
2018-07-14T14:27:08.298Z,3.90
2018-07-14T14:29:40.108Z,4.10
2018-07-14T14:32:11.199Z,4.10
2018-07-14T14:34:42.969Z,4.00
2018-07-14T14:37:14.696Z,4.05
2018-07-14T14:39:46.164Z,3.98
2018-07-14T14:42:17.398Z,3.67
2018-07-14T14:44:48.936Z,4.12
2018-07-14T14:47:20.045Z,3.70
2018-07-14T14:49:51.552Z,4.20
2018-07-14T14:52:23.069Z,4.50
2018-07-14T14:54:54.391Z,3.60
2018-07-14T14:57:25.730Z,3.50
2018-07-14T14:59:56.804Z,3.70
2018-07-14T15:02:28.113Z,4.37
2018-07-14T15:04:59.137Z,5.80
2018-07-14T15:07:30.125Z,3.87
2018-07-14T15:10:01.282Z,6.62
2018-07-14T15:12:32.336Z,5.55
2018-07-14T15:15:03.646Z,4.53
2018-07-14T15:17:34.822Z,4.50
2018-07-14T15:20:05.897Z,4.78
2018-07-14T15:22:36.920Z,5.45
2018-07-14T15:25:08.157Z,4.17
2018-07-14T15:27:39.490Z,4.90
2018-07-14T15:30:10.822Z,3.62
2018-07-14T15:32:41.938Z,4.15
2018-07-14T15:35:13.072Z,3.60
2018-07-14T15:37:44.269Z,4.75
2018-07-14T15:40:15.417Z,4.05
2018-07-14T15:42:46.379Z,3.55
2018-07-14T15:45:17.606Z,3.40
2018-07-14T15:47:48.656Z,3.30
2018-07-14T15:50:20.323Z,3.55
2018-07-14T15:52:52.865Z,3.62
2018-07-14T15:55:23.964Z,3.30
2018-07-14T15:57:55.519Z,3.62
2018-07-14T16:00:26.688Z,3.30
2018-07-14T16:02:58.412Z,3.40
2018-07-14T16:05:29.618Z,3.20
2018-07-14T16:08:00.845Z,3.25
2018-07-14T16:10:31.941Z,3.27
2018-07-14T16:13:03.093Z,3.17
2018-07-14T16:15:34.072Z,3.20
2018-07-14T16:18:05.608Z,3.08
2018-07-14T16:20:36.881Z,3.02
2018-07-14T16:23:07.919Z,3.22
2018-07-14T16:25:39.173Z,3.42
2018-07-14T16:28:10.641Z,3.02
2018-07-14T16:30:41.716Z,3.55
2018-07-14T16:33:13.106Z,3.50
2018-07-14T16:35:44.483Z,3.92
2018-07-14T16:38:15.567Z,3.20
2018-07-14T16:40:46.923Z,3.70
2018-07-14T16:43:19.623Z,4.08
2018-07-14T16:45:51.030Z,3.47
2018-07-14T16:48:23.290Z,4.17
2018-07-14T16:50:54.479Z,2.80
2018-07-14T16:53:25.868Z,3.83
2018-07-14T16:55:56.961Z,4.03
2018-07-14T16:58:28.109Z,3.87
2018-07-14T17:00:59.458Z,4.15
2018-07-14T17:03:30.549Z,4.17
2018-07-14T17:06:01.792Z,4.33
2018-07-14T17:08:33.007Z,7.33
2018-07-14T17:11:04.426Z,6.25
2018-07-14T17:13:35.655Z,4.55
2018-07-14T17:16:07.129Z,4.67
2018-07-14T17:18:38.348Z,4.97
2018-07-14T17:21:09.544Z,4.47
2018-07-14T17:23:40.584Z,4.58
2018-07-14T17:26:11.557Z,4.72
2018-07-14T17:28:42.991Z,3.92
2018-07-14T17:31:14.518Z,4.10
2018-07-14T17:33:45.032Z,4.05
2018-07-14T17:36:16.004Z,4.45
2018-07-14T17:38:47.049Z,5.03
2018-07-14T17:41:18.001Z,4.28
2018-07-14T17:43:49.705Z,3.17
2018-07-14T17:46:21.362Z,3.72
2018-07-14T17:48:53.089Z,4.72
2018-07-14T17:51:24.639Z,4.47
2018-07-14T17:53:56.039Z,5.00
2018-07-14T17:56:27.089Z,4.85
2018-07-14T17:58:58.050Z,3.60
2018-07-14T18:01:29.434Z,3.98
2018-07-14T18:04:00.453Z,4.17
2018-07-14T18:06:32.049Z,4.30
2018-07-14T18:09:03.226Z,4.20
2018-07-14T18:11:34.424Z,3.60
2018-07-14T18:14:05.536Z,3.70
2018-07-14T18:16:37.241Z,5.10
2018-07-14T18:19:08.374Z,5.37
2018-07-14T18:21:39.441Z,3.72
2018-07-14T18:24:10.621Z,4.33
2018-07-14T18:26:41.759Z,4.12
2018-07-14T18:29:12.804Z,3.50
2018-07-14T18:31:43.854Z,3.90
2018-07-14T18:34:15.227Z,3.90
2018-07-14T18:36:46.188Z,4.37
2018-07-14T18:39:17.149Z,3.70
2018-07-14T18:41:48.091Z,3.72
2018-07-14T18:44:18.933Z,4.40
2018-07-14T18:46:50.493Z,4.72
2018-07-14T18:49:21.692Z,6.33
2018-07-14T18:51:53.683Z,7.28
2018-07-14T18:54:25.007Z,5.80
2018-07-14T18:56:56.244Z,5.47
2018-07-14T18:59:27.547Z,5.92
2018-07-14T19:01:58.761Z,4.85
2018-07-14T19:04:29.966Z,4.50
2018-07-14T19:07:01.214Z,5.78
2018-07-14T19:09:32.440Z,5.50
2018-07-14T19:12:03.535Z,6.85
2018-07-14T19:14:34.698Z,8.23
2018-07-14T19:17:06.182Z,5.80
2018-07-14T19:19:37.102Z,4.80
2018-07-14T19:22:08.664Z,5.28
2018-07-14T19:24:39.751Z,6.75
2018-07-14T19:27:11.103Z,7.42
2018-07-14T19:29:41.588Z,6.17
2018-07-14T19:32:12.517Z,9.40
2018-07-14T19:34:43.602Z,7.50
2018-07-14T19:37:14.918Z,7.47
2018-07-14T19:39:45.623Z,6.90
2018-07-14T19:42:16.602Z,7.10
2018-07-14T19:44:47.814Z,6.17
2018-07-14T19:47:19.434Z,6.93
2018-07-14T19:49:50.688Z,7.47
2018-07-14T19:52:22.051Z,9.27
2018-07-14T19:54:53.194Z,12.40
2018-07-14T19:57:24.520Z,7.00
2018-07-14T19:59:55.862Z,6.83
2018-07-14T20:02:27.102Z,8.00
2018-07-14T20:04:58.709Z,7.07
2018-07-14T20:07:29.809Z,7.10
2018-07-14T20:10:00.987Z,7.70
2018-07-14T20:12:32.016Z,7.73
2018-07-14T20:15:02.681Z,9.27
2018-07-14T20:17:33.983Z,7.87
2018-07-14T20:20:05.952Z,9.17
2018-07-14T20:22:37.332Z,10.03
2018-07-14T20:25:08.785Z,8.50
2018-07-14T20:27:39.926Z,8.60
2018-07-14T20:30:11.341Z,8.20
2018-07-14T20:32:42.411Z,8.77
2018-07-14T20:35:14.033Z,8.43
2018-07-14T20:37:45.330Z,8.13
2018-07-14T20:40:16.788Z,9.53
2018-07-14T20:42:47.941Z,8.57
2018-07-14T20:45:19.708Z,11.57
2018-07-14T20:47:51.057Z,10.00
2018-07-14T20:50:22.389Z,7.43
2018-07-14T20:52:53.752Z,7.73
2018-07-14T20:55:25.307Z,7.73
2018-07-14T20:57:56.536Z,11.10
2018-07-14T21:00:27.806Z,10.33
2018-07-14T21:02:58.810Z,9.93
2018-07-14T21:05:29.997Z,8.47
2018-07-14T21:08:01.448Z,7.53
2018-07-14T21:10:32.465Z,8.53
2018-07-14T21:13:04.239Z,9.10
2018-07-14T21:15:35.291Z,9.20
2018-07-14T21:18:06.445Z,9.13
2018-07-14T21:20:37.513Z,9.27
2018-07-14T21:23:09.068Z,7.53
2018-07-14T21:25:40.653Z,9.03
2018-07-14T21:28:11.749Z,9.07
2018-07-14T21:30:43.044Z,9.17
2018-07-14T21:33:14.195Z,8.50
2018-07-14T21:35:45.513Z,10.77
2018-07-14T21:38:16.840Z,10.97
2018-07-14T21:40:48.059Z,11.87
2018-07-14T21:43:19.167Z,9.27
2018-07-14T21:45:50.390Z,11.57
2018-07-14T21:48:22.306Z,9.63
2018-07-14T21:50:54.008Z,9.77
2018-07-14T21:53:25.232Z,9.67
2018-07-14T21:55:56.624Z,9.70
2018-07-14T21:58:27.873Z,10.67
2018-07-14T22:01:06.584Z,9.50
2018-07-14T22:03:37.820Z,10.43
2018-07-14T22:06:09.041Z,8.47
2018-07-14T22:08:40.384Z,11.37
2018-07-14T22:11:11.553Z,8.90
2018-07-14T22:13:43.133Z,8.70
2018-07-14T22:16:14.340Z,9.37
2018-07-14T22:18:45.225Z,10.37
2018-07-14T22:21:16.281Z,9.83
2018-07-14T22:23:47.403Z,8.53
2018-07-14T22:26:18.478Z,11.50
2018-07-14T22:28:49.878Z,9.20
2018-07-14T22:31:21.342Z,8.90
2018-07-14T22:33:52.417Z,8.77
2018-07-14T22:36:23.627Z,10.57
2018-07-14T22:38:54.828Z,11.80
2018-07-14T22:41:26.166Z,13.87
2018-07-14T22:43:57.482Z,12.20
2018-07-14T22:46:28.631Z,14.30
2018-07-14T22:48:59.935Z,21.37
2018-07-14T22:51:31.565Z,12.50
2018-07-14T22:54:02.648Z,10.83
2018-07-14T22:56:33.706Z,10.40
2018-07-14T22:59:04.861Z,12.10
2018-07-14T23:01:36.133Z,11.67
2018-07-14T23:04:07.443Z,11.67
2018-07-14T23:06:38.432Z,12.53
2018-07-14T23:09:09.524Z,13.03
2018-07-14T23:11:40.742Z,11.50
2018-07-14T23:14:12.077Z,11.43
2018-07-14T23:16:43.067Z,12.30
2018-07-14T23:19:14.210Z,12.30
2018-07-14T23:21:45.535Z,13.53
2018-07-14T23:24:16.709Z,12.43
2018-07-14T23:26:48.200Z,14.47
2018-07-14T23:29:19.264Z,13.23
2018-07-14T23:31:50.486Z,11.77
2018-07-14T23:34:21.758Z,13.20
2018-07-14T23:36:53.258Z,12.23
2018-07-14T23:39:24.377Z,12.20
2018-07-14T23:41:55.476Z,11.03
2018-07-14T23:44:26.534Z,12.57
2018-07-14T23:46:58.045Z,13.63
2018-07-14T23:49:29.358Z,12.73
2018-07-14T23:52:00.747Z,12.67
2018-07-14T23:54:31.979Z,11.97
2018-07-14T23:57:03.323Z,11.23
2018-07-14T23:59:34.471Z,11.40
